createdAt,value
2018-12-30T00:01:15.000Z,101421
2018-12-30T00:03:00.000Z,101409
2018-12-30T00:04:00.000Z,101413
2018-12-30T00:06:00.000Z,101396
2018-12-30T00:07:15.000Z,101412
2018-12-30T00:09:00.000Z,101414
2018-12-30T00:11:00.000Z,101400
2018-12-30T00:12:30.000Z,101420
2018-12-30T00:14:15.000Z,101419
2018-12-30T00:16:15.000Z,101416
2018-12-30T00:18:30.000Z,101419
2018-12-30T00:20:15.000Z,101425
2018-12-30T00:21:30.000Z,101431
2018-12-30T00:23:30.000Z,101435
2018-12-30T00:25:30.000Z,101437
2018-12-30T00:27:30.000Z,101436
2018-12-30T00:28:30.000Z,101430
2018-12-30T00:29:59.000Z,101435
2018-12-30T00:31:30.000Z,101449
2018-12-30T00:33:30.000Z,101442
2018-12-30T00:35:30.000Z,101459
2018-12-30T00:36:30.000Z,101461
2018-12-30T00:38:30.000Z,101470
2018-12-30T00:40:00.000Z,101420
2018-12-30T00:41:15.000Z,101467
2018-12-30T00:43:30.000Z,101486
2018-12-30T00:45:15.000Z,101483
2018-12-30T00:46:30.000Z,101475
2018-12-30T00:48:30.000Z,101485
2018-12-30T00:49:59.000Z,101492
2018-12-30T00:51:15.000Z,101484
2018-12-30T00:53:30.000Z,101492
2018-12-30T00:55:00.000Z,101468
2018-12-30T00:57:15.000Z,101485
2018-12-30T00:58:30.000Z,101493
2018-12-30T01:00:15.000Z,101502
2018-12-30T01:01:30.000Z,101497
2018-12-30T01:03:30.000Z,101506
2018-12-30T01:04:29.000Z,101510
2018-12-30T01:06:29.000Z,101514
2018-12-30T01:08:29.000Z,101509
2018-12-30T01:10:14.000Z,101523
2018-12-30T01:11:29.000Z,101510
2018-12-30T01:13:29.000Z,101529
2018-12-30T01:15:14.000Z,101532
2018-12-30T01:16:29.000Z,101538
2018-12-30T01:17:29.000Z,101536
2018-12-30T01:19:14.000Z,101534
2018-12-30T01:21:29.000Z,101545
2018-12-30T01:23:14.000Z,101546
2018-12-30T01:24:29.000Z,101550
2018-12-30T01:26:29.000Z,101557
2018-12-30T01:27:59.000Z,101562
2018-12-30T01:29:29.000Z,101556
2018-12-30T01:31:14.000Z,101569
2018-12-30T01:33:29.000Z,101563
2018-12-30T01:34:29.000Z,101558
2018-12-30T01:36:29.000Z,101581
2018-12-30T01:38:29.000Z,101580
2018-12-30T01:39:59.000Z,101584
2018-12-30T01:41:29.000Z,101585
2018-12-30T01:43:29.000Z,101581
2018-12-30T01:44:29.000Z,101581
2018-12-30T01:46:29.000Z,101588
2018-12-30T01:48:14.000Z,101590
2018-12-30T01:49:29.000Z,101592
2018-12-30T01:51:29.000Z,101599
2018-12-30T01:53:29.000Z,101606
2018-12-30T01:55:14.000Z,101608
2018-12-30T01:57:29.000Z,101599
2018-12-30T01:58:29.000Z,101595
2018-12-30T02:00:14.000Z,101600
2018-12-30T02:01:29.000Z,101604
2018-12-30T02:03:29.000Z,101608
2018-12-30T02:04:59.000Z,101603
2018-12-30T02:06:29.000Z,101608
2018-12-30T02:08:29.000Z,101616
2018-12-30T02:21:46.000Z,101644
2018-12-30T02:23:16.000Z,101645
2018-12-30T02:24:32.000Z,101653
2018-12-30T02:26:16.000Z,101652
2018-12-30T02:27:32.000Z,101658
2018-12-30T02:29:02.000Z,101639
2018-12-30T02:30:32.000Z,101663
2018-12-30T02:32:16.000Z,101665
2018-12-30T02:33:32.000Z,101664
2018-12-30T02:35:32.000Z,101654
2018-12-30T02:36:32.000Z,101655
2018-12-30T02:38:32.000Z,101649
2018-12-30T02:40:17.000Z,101660
2018-12-30T02:41:32.000Z,101673
2018-12-30T02:43:16.000Z,101673
2018-12-30T02:44:17.000Z,101658
2018-12-30T02:46:17.000Z,101668
2018-12-30T02:48:17.000Z,101660
2018-12-30T02:49:32.000Z,101673
2018-12-30T02:50:32.000Z,101671
2018-12-30T02:52:16.000Z,101666
2018-12-30T02:53:32.000Z,101680
2018-12-30T02:55:02.000Z,101665
2018-12-30T02:57:17.000Z,101663
2018-12-30T02:58:32.000Z,101662
2018-12-30T02:59:32.000Z,101664
2018-12-30T03:01:32.000Z,101665
2018-12-30T03:03:32.000Z,101674
2018-12-30T03:05:32.000Z,101679
2018-12-30T03:07:16.000Z,101675
2018-12-30T03:08:17.000Z,101678
2018-12-30T03:09:32.000Z,101680
2018-12-30T03:11:32.000Z,101680
2018-12-30T03:13:31.000Z,101688
2018-12-30T03:14:31.000Z,101690
2018-12-30T03:15:32.000Z,101692
2018-12-30T03:17:32.000Z,101692
2018-12-30T03:19:32.000Z,101691
2018-12-30T03:21:32.000Z,101698
2018-12-30T03:23:02.000Z,101707
2018-12-30T03:24:31.000Z,101683
2018-12-30T03:25:32.000Z,101686
2018-12-30T03:27:17.000Z,101710
2018-12-30T03:29:31.000Z,101703
2018-12-30T03:30:32.000Z,101700
2018-12-30T03:32:32.000Z,101700
2018-12-30T03:34:31.000Z,101705
2018-12-30T03:36:31.000Z,101707
2018-12-30T03:38:31.000Z,101697
2018-12-30T03:39:31.000Z,101703
2018-12-30T03:41:31.000Z,101707
2018-12-30T03:42:31.000Z,101710
2018-12-30T03:44:32.000Z,101718
2018-12-30T03:45:32.000Z,101714
2018-12-30T03:47:16.000Z,101713
2018-12-30T03:48:31.000Z,101717
2018-12-30T03:49:32.000Z,101714
2018-12-30T03:51:31.000Z,101716
2018-12-30T03:53:31.000Z,101713
2018-12-30T03:54:31.000Z,101709
2018-12-30T03:56:31.000Z,101717
2018-12-30T03:58:31.000Z,101711
2018-12-30T03:59:31.000Z,101712
2018-12-30T04:01:16.000Z,101712
2018-12-30T04:02:32.000Z,101723
2018-12-30T04:04:32.000Z,101714
2018-12-30T04:06:16.000Z,101718
2018-12-30T04:07:31.000Z,101718
2018-12-30T04:08:31.000Z,101718
2018-12-30T04:10:16.000Z,101719
2018-12-30T04:11:32.000Z,101710
2018-12-30T04:13:31.000Z,101720
2018-12-30T04:14:32.000Z,101716
2018-12-30T04:16:31.000Z,101706
2018-12-30T04:18:31.000Z,101723
2018-12-30T04:20:31.000Z,101724
2018-12-30T04:22:16.000Z,101726
2018-12-30T04:23:31.000Z,101739
2018-12-30T04:25:15.000Z,101740
2018-12-30T04:26:31.000Z,101732
2018-12-30T04:28:31.000Z,101743
2018-12-30T04:30:31.000Z,101746
2018-12-30T04:32:31.000Z,101749
2018-12-30T04:34:31.000Z,101742
2018-12-30T04:35:31.000Z,101742
2018-12-30T04:37:31.000Z,101743
2018-12-30T04:39:15.000Z,101746
2018-12-30T04:40:31.000Z,101745
2018-12-30T04:42:31.000Z,101746
2018-12-30T04:44:31.000Z,101753
2018-12-30T04:46:31.000Z,101768
2018-12-30T04:48:31.000Z,101766
2018-12-30T04:49:31.000Z,101761
2018-12-30T04:51:15.000Z,101765
2018-12-30T04:52:16.000Z,101765
2018-12-30T04:54:31.000Z,101776
2018-12-30T04:55:31.000Z,101775
2018-12-30T04:56:31.000Z,101776
2018-12-30T04:58:31.000Z,101775
2018-12-30T05:00:31.000Z,101779
2018-12-30T05:02:31.000Z,101774
2018-12-30T05:04:31.000Z,101782
2018-12-30T05:05:31.000Z,101782
2018-12-30T05:07:31.000Z,101797
2018-12-30T05:09:31.000Z,101796
2018-12-30T05:11:31.000Z,101805
2018-12-30T05:13:31.000Z,101794
2018-12-30T05:14:31.000Z,101791
2018-12-30T05:15:31.000Z,101793
2018-12-30T05:17:31.000Z,101794
2018-12-30T05:19:31.000Z,101790
2018-12-30T05:20:31.000Z,101796
2018-12-30T05:22:16.000Z,101791
2018-12-30T05:23:31.000Z,101779
2018-12-30T05:25:31.000Z,101757
2018-12-30T05:26:31.000Z,101757
2018-12-30T05:28:16.000Z,101740
2018-12-30T05:29:31.000Z,101765
2018-12-30T05:31:16.000Z,101788
2018-12-30T05:32:31.000Z,101799
2018-12-30T05:33:31.000Z,101801
2018-12-30T05:35:31.000Z,101804
2018-12-30T05:36:31.000Z,101801
2018-12-30T05:38:31.000Z,101794
2018-12-30T05:39:31.000Z,101795
2018-12-30T05:41:31.000Z,101789
2018-12-30T05:43:31.000Z,101788
2018-12-30T05:45:31.000Z,101789
2018-12-30T05:47:16.000Z,101808
2018-12-30T05:48:31.000Z,101799
2018-12-30T05:49:31.000Z,101793
2018-12-30T05:51:31.000Z,101809
2018-12-30T05:53:31.000Z,101806
2018-12-30T05:54:31.000Z,101806
2018-12-30T05:55:31.000Z,101808
2018-12-30T05:57:31.000Z,101812
2018-12-30T05:58:31.000Z,101816
2018-12-30T06:00:16.000Z,101826
2018-12-30T06:01:31.000Z,101818
2018-12-30T06:03:16.000Z,101822
2018-12-30T06:04:31.000Z,101821
2018-12-30T06:06:31.000Z,101813
2018-12-30T06:08:31.000Z,101812
2018-12-30T06:10:31.000Z,101820
2018-12-30T06:12:31.000Z,101804
2018-12-30T06:13:31.000Z,101808
2018-12-30T06:15:31.000Z,101814
2018-12-30T06:17:31.000Z,101839
2018-12-30T06:18:31.000Z,101829
2018-12-30T06:20:16.000Z,101832
2018-12-30T06:21:31.000Z,101837
2018-12-30T06:23:31.000Z,101844
2018-12-30T06:25:31.000Z,101841
2018-12-30T06:27:16.000Z,101852
2018-12-30T06:28:31.000Z,101854
2018-12-30T06:29:31.000Z,101857
2018-12-30T06:31:31.000Z,101862
2018-12-30T06:32:31.000Z,101864
2018-12-30T06:34:31.000Z,101860
2018-12-30T06:35:31.000Z,101858
2018-12-30T06:37:31.000Z,101866
2018-12-30T06:39:31.000Z,101865
2018-12-30T06:40:31.000Z,101863
2018-12-30T06:42:16.000Z,101861
2018-12-30T06:43:31.000Z,101861
2018-12-30T06:45:31.000Z,101851
2018-12-30T06:46:31.000Z,101851
2018-12-30T06:48:31.000Z,101854
2018-12-30T06:49:31.000Z,101853
2018-12-30T06:51:16.000Z,101856
2018-12-30T06:52:31.000Z,101856
2018-12-30T06:53:31.000Z,101860
2018-12-30T06:55:31.000Z,101861
2018-12-30T06:57:16.000Z,101855
2018-12-30T06:58:31.000Z,101863
2018-12-30T07:00:31.000Z,101865
2018-12-30T07:02:31.000Z,101871
2018-12-30T07:03:31.000Z,101873
2018-12-30T07:05:31.000Z,101886
2018-12-30T07:07:01.000Z,101903
2018-12-30T07:08:31.000Z,101892
2018-12-30T07:10:31.000Z,101890
2018-12-30T07:11:31.000Z,101888
2018-12-30T07:13:16.000Z,101885
2018-12-30T07:14:31.000Z,101889
2018-12-30T07:15:31.000Z,101895
2018-12-30T07:17:31.000Z,101893
2018-12-30T07:19:31.000Z,101892
2018-12-30T07:20:31.000Z,101891
2018-12-30T07:22:31.000Z,101905
2018-12-30T07:24:31.000Z,101901
2018-12-30T07:25:31.000Z,101901
2018-12-30T07:27:16.000Z,101895
2018-12-30T07:29:32.000Z,101896
2018-12-30T07:30:32.000Z,101901
2018-12-30T07:32:16.000Z,101897
2018-12-30T07:33:32.000Z,101898
2018-12-30T07:34:32.000Z,101897
2018-12-30T07:36:16.000Z,101888
2018-12-30T07:37:32.000Z,101882
2018-12-30T07:39:32.000Z,101896
2018-12-30T07:41:32.000Z,101900
2018-12-30T07:42:32.000Z,101891
2018-12-30T07:44:32.000Z,101900
2018-12-30T07:45:32.000Z,101899
2018-12-30T07:47:32.000Z,101894
2018-12-30T07:49:32.000Z,101898
2018-12-30T07:50:32.000Z,101897
2018-12-30T07:52:32.000Z,101899
2018-12-30T07:53:32.000Z,101897
2018-12-30T07:55:32.000Z,101899
2018-12-30T07:56:32.000Z,101909
2018-12-30T07:58:32.000Z,101910
2018-12-30T07:59:32.000Z,101910
2018-12-30T08:01:32.000Z,101905
2018-12-30T08:02:32.000Z,101911
2018-12-30T08:03:32.000Z,101917
2018-12-30T08:05:32.000Z,101917
2018-12-30T08:07:32.000Z,101910
2018-12-30T08:09:32.000Z,101923
2018-12-30T08:11:17.000Z,101917
2018-12-30T08:12:32.000Z,101927
2018-12-30T08:14:32.000Z,101921
2018-12-30T08:15:32.000Z,101921
2018-12-30T08:17:32.000Z,101914
2018-12-30T08:19:32.000Z,101921
2018-12-30T08:21:32.000Z,101924
2018-12-30T08:22:32.000Z,101925
2018-12-30T08:24:16.000Z,101926
2018-12-30T08:25:32.000Z,101924
2018-12-30T08:27:16.000Z,101933
2018-12-30T08:28:17.000Z,101931
2018-12-30T08:30:32.000Z,101922
2018-12-30T08:31:32.000Z,101920
2018-12-30T08:32:32.000Z,101923
2018-12-30T08:34:32.000Z,101921
2018-12-30T08:35:32.000Z,101923
2018-12-30T08:37:16.000Z,101924
2018-12-30T08:38:32.000Z,101926
2018-12-30T08:40:32.000Z,101924
2018-12-30T08:42:31.000Z,101931
2018-12-30T08:44:16.000Z,101930
2018-12-30T08:45:32.000Z,101935
2018-12-30T08:47:32.000Z,101933
2018-12-30T08:48:32.000Z,101936
2018-12-30T08:50:17.000Z,101935
2018-12-30T08:51:32.000Z,101941
2018-12-30T08:53:31.000Z,101940
2018-12-30T08:54:32.000Z,101938
2018-12-30T08:56:01.000Z,101942
2018-12-30T08:57:32.000Z,101949
2018-12-30T08:59:32.000Z,101950
2018-12-30T09:01:31.000Z,101941
2018-12-30T09:03:31.000Z,101942
2018-12-30T09:04:32.000Z,101936
2018-12-30T09:05:32.000Z,101943
2018-12-30T09:06:32.000Z,101941
2018-12-30T09:08:17.000Z,101928
2018-12-30T09:09:17.000Z,101921
2018-12-30T09:11:32.000Z,101924
2018-12-30T09:13:32.000Z,101930
2018-12-30T09:14:32.000Z,101927
2018-12-30T09:16:01.000Z,101922
2018-12-30T09:17:17.000Z,101911
2018-12-30T09:18:31.000Z,101918
2018-12-30T09:19:32.000Z,101918
2018-12-30T09:21:32.000Z,101908
2018-12-30T09:23:32.000Z,101917
2018-12-30T09:25:32.000Z,101919
2018-12-30T09:26:32.000Z,101924
2018-12-30T09:28:32.000Z,101913
2018-12-30T09:30:32.000Z,101921
2018-12-30T09:32:32.000Z,101927
2018-12-30T09:34:32.000Z,101923
2018-12-30T09:36:31.000Z,101935
2018-12-30T09:37:31.000Z,101936
2018-12-30T09:39:31.000Z,101929
2018-12-30T09:41:31.000Z,101928
2018-12-30T09:43:16.000Z,101933
2018-12-30T09:44:31.000Z,101934
2018-12-30T09:46:16.000Z,101943
2018-12-30T09:47:31.000Z,101938
2018-12-30T09:49:31.000Z,101939
2018-12-30T09:51:31.000Z,101938
2018-12-30T09:52:31.000Z,101939
2018-12-30T09:54:31.000Z,101939
2018-12-30T09:56:16.000Z,101946
2018-12-30T09:57:31.000Z,101951
2018-12-30T09:59:31.000Z,101951
2018-12-30T10:01:16.000Z,101958
2018-12-30T10:02:31.000Z,101973
2018-12-30T10:04:31.000Z,101977
2018-12-30T10:06:31.000Z,101979
2018-12-30T10:08:31.000Z,101980
2018-12-30T10:09:31.000Z,101985
2018-12-30T10:10:31.000Z,101993
2018-12-30T10:12:16.000Z,101993
2018-12-30T10:13:31.000Z,101992
2018-12-30T10:15:01.000Z,101975
2018-12-30T10:16:31.000Z,101993
2018-12-30T10:17:31.000Z,101996
2018-12-30T10:19:31.000Z,101999
2018-12-30T10:20:31.000Z,102003
2018-12-30T10:22:31.000Z,102002
2018-12-30T10:24:16.000Z,101996
2018-12-30T10:25:31.000Z,101999
2018-12-30T10:27:16.000Z,101997
2018-12-30T10:28:31.000Z,101996
2018-12-30T10:30:00.000Z,101999
2018-12-30T10:31:31.000Z,101998
2018-12-30T10:33:16.000Z,101990
2018-12-30T10:35:31.000Z,101977
2018-12-30T10:37:31.000Z,101984
2018-12-30T10:39:31.000Z,101975
2018-12-30T10:41:00.000Z,101975
2018-12-30T10:42:31.000Z,101962
2018-12-30T10:44:31.000Z,101960
2018-12-30T10:46:31.000Z,101958
2018-12-30T10:48:31.000Z,101961
2018-12-30T10:49:31.000Z,101961
2018-12-30T10:51:31.000Z,101964
2018-12-30T10:52:31.000Z,101963
2018-12-30T10:54:16.000Z,101961
2018-12-30T10:55:31.000Z,101961
2018-12-30T10:57:31.000Z,101957
2018-12-30T10:59:31.000Z,101962
2018-12-30T11:00:31.000Z,101960
2018-12-30T11:01:31.000Z,101951
2018-12-30T11:03:31.000Z,101951
2018-12-30T11:05:31.000Z,101947
2018-12-30T11:07:16.000Z,101940
2018-12-30T11:09:31.000Z,101951
2018-12-30T11:11:31.000Z,101950
2018-12-30T11:13:31.000Z,101952
2018-12-30T11:15:31.000Z,101952
2018-12-30T11:16:31.000Z,101952
2018-12-30T11:17:31.000Z,101943
2018-12-30T11:19:16.000Z,101940
2018-12-30T11:20:31.000Z,101940
2018-12-30T11:22:31.000Z,101936
2018-12-30T11:24:01.000Z,101937
2018-12-30T11:26:31.000Z,101940
2018-12-30T11:27:31.000Z,101943
2018-12-30T11:29:00.000Z,101943
2018-12-30T11:30:31.000Z,101941
2018-12-30T11:32:31.000Z,101936
2018-12-30T11:34:16.000Z,101933
2018-12-30T11:35:31.000Z,101933
2018-12-30T11:37:16.000Z,101931
2018-12-30T11:38:31.000Z,101925
2018-12-30T11:40:31.000Z,101924
2018-12-30T11:41:31.000Z,101925
2018-12-30T11:43:31.000Z,101933
2018-12-30T11:45:31.000Z,101937
2018-12-30T11:47:16.000Z,101933
2018-12-30T11:48:31.000Z,101927
2018-12-30T11:49:31.000Z,101931
2018-12-30T11:51:16.000Z,101930
2018-12-30T11:53:31.000Z,101932
2018-12-30T11:55:31.000Z,101938
2018-12-30T11:56:31.000Z,101938
2018-12-30T11:58:16.000Z,101941
2018-12-30T11:59:31.000Z,101941
2018-12-30T12:01:31.000Z,101940
2018-12-30T12:03:31.000Z,101930
2018-12-30T12:04:31.000Z,101932
2018-12-30T12:05:31.000Z,101928
2018-12-30T12:07:31.000Z,101919
2018-12-30T12:09:31.000Z,101916
2018-12-30T12:11:31.000Z,101908
2018-12-30T12:12:31.000Z,101906
2018-12-30T12:14:31.000Z,101904
2018-12-30T12:15:31.000Z,101905
2018-12-30T12:17:31.000Z,101900
2018-12-30T12:19:31.000Z,101902
2018-12-30T12:21:31.000Z,101895
2018-12-30T12:23:31.000Z,101890
2018-12-30T12:25:16.000Z,101887
2018-12-30T12:26:16.000Z,101889
2018-12-30T12:27:31.000Z,101891
2018-12-30T12:28:31.000Z,101894
2018-12-30T12:30:31.000Z,101897
2018-12-30T12:32:31.000Z,101905
2018-12-30T12:33:31.000Z,101910
2018-12-30T12:35:31.000Z,101909
2018-12-30T12:36:31.000Z,101901
2018-12-30T12:37:31.000Z,101908
2018-12-30T12:39:16.000Z,101908
2018-12-30T12:40:31.000Z,101903
2018-12-30T12:42:31.000Z,101911
2018-12-30T12:43:31.000Z,101914
2018-12-30T12:45:16.000Z,101915
2018-12-30T12:46:31.000Z,101917
2018-12-30T12:48:32.000Z,101907
2018-12-30T12:49:32.000Z,101907
2018-12-30T12:51:32.000Z,101909
2018-12-30T12:53:16.000Z,101907
2018-12-30T12:54:32.000Z,101907
2018-12-30T12:56:31.000Z,101909
2018-12-30T12:57:32.000Z,101905
2018-12-30T12:59:32.000Z,101911
2018-12-30T13:00:32.000Z,101903
2018-12-30T13:02:32.000Z,101910
2018-12-30T13:04:32.000Z,101903
2018-12-30T13:06:32.000Z,101898
2018-12-30T13:07:32.000Z,101901
2018-12-30T13:09:32.000Z,101903
2018-12-30T13:11:32.000Z,101909
2018-12-30T13:13:32.000Z,101914
2018-12-30T13:14:32.000Z,101914
2018-12-30T13:15:32.000Z,101914
2018-12-30T13:17:31.000Z,101911
2018-12-30T13:18:32.000Z,101910
2018-12-30T13:20:32.000Z,101917
2018-12-30T13:21:32.000Z,101923
2018-12-30T13:23:32.000Z,101922
2018-12-30T13:25:32.000Z,101927
2018-12-30T13:26:32.000Z,101930
2018-12-30T13:28:32.000Z,101930
2018-12-30T13:30:31.000Z,101934
2018-12-30T13:31:32.000Z,101932
2018-12-30T13:32:32.000Z,101934
2018-12-30T13:34:17.000Z,101921
2018-12-30T13:36:32.000Z,101929
2018-12-30T13:38:32.000Z,101934
2018-12-30T13:39:32.000Z,101941
2018-12-30T13:41:02.000Z,101938
2018-12-30T13:42:32.000Z,101947
2018-12-30T13:44:32.000Z,101946
2018-12-30T13:46:16.000Z,101945
2018-12-30T13:47:17.000Z,101951
2018-12-30T13:48:32.000Z,101947
2018-12-30T13:49:32.000Z,101947
2018-12-30T13:50:31.000Z,101939
2018-12-30T13:51:31.000Z,101940
2018-12-30T13:53:31.000Z,101935
2018-12-30T13:55:31.000Z,101933
2018-12-30T13:57:31.000Z,101937
2018-12-30T13:59:31.000Z,101935
2018-12-30T14:01:31.000Z,101932
2018-12-30T14:03:31.000Z,101932
2018-12-30T14:04:31.000Z,101934
2018-12-30T14:05:31.000Z,101936
2018-12-30T14:07:16.000Z,101933
2018-12-30T14:08:31.000Z,101921
2018-12-30T14:09:31.000Z,101927
2018-12-30T14:11:31.000Z,101925
2018-12-30T14:13:31.000Z,101925
2018-12-30T14:14:31.000Z,101930
2018-12-30T14:15:31.000Z,101942
2018-12-30T14:17:31.000Z,101945
2018-12-30T14:18:31.000Z,101943
2018-12-30T14:20:16.000Z,101942
2018-12-30T14:22:16.000Z,101938
2018-12-30T14:23:31.000Z,101937
2018-12-30T14:24:31.000Z,101935
2018-12-30T14:25:31.000Z,101929
2018-12-30T14:26:31.000Z,101926
2018-12-30T14:28:16.000Z,101925
2018-12-30T14:29:31.000Z,101920
2018-12-30T14:30:31.000Z,101922
2018-12-30T14:32:16.000Z,101921
2018-12-30T14:33:31.000Z,101932
2018-12-30T14:35:31.000Z,101922
2018-12-30T14:37:16.000Z,101909
2018-12-30T14:38:31.000Z,101913
2018-12-30T14:39:31.000Z,101912
2018-12-30T14:40:31.000Z,101912
2018-12-30T14:42:31.000Z,101917
2018-12-30T14:44:31.000Z,101916
2018-12-30T14:45:31.000Z,101921
2018-12-30T14:46:31.000Z,101922
2018-12-30T14:48:31.000Z,101935
2018-12-30T14:50:31.000Z,101934
2018-12-30T14:51:31.000Z,101932
2018-12-30T14:53:16.000Z,101929
2018-12-30T14:55:01.000Z,101927
2018-12-30T14:56:16.000Z,101917
2018-12-30T14:57:31.000Z,101919
2018-12-30T14:59:31.000Z,101922
2018-12-30T15:01:31.000Z,101934
2018-12-30T15:03:31.000Z,101931
2018-12-30T15:05:31.000Z,101935
2018-12-30T15:07:31.000Z,101934
2018-12-30T15:09:31.000Z,101933
2018-12-30T15:11:31.000Z,101939
2018-12-30T15:13:31.000Z,101943
2018-12-30T15:14:31.000Z,101938
2018-12-30T15:16:16.000Z,101948
2018-12-30T15:17:31.000Z,101949
2018-12-30T15:18:31.000Z,101946
2018-12-30T15:19:31.000Z,101944
2018-12-30T15:21:31.000Z,101937
2018-12-30T15:23:31.000Z,101927
2018-12-30T15:24:31.000Z,101935
2018-12-30T15:26:31.000Z,101925
2018-12-30T15:28:16.000Z,101911
2018-12-30T15:29:16.000Z,101920
2018-12-30T15:30:31.000Z,101917
2018-12-30T15:31:31.000Z,101915
2018-12-30T15:32:31.000Z,101915
2018-12-30T15:34:31.000Z,101922
2018-12-30T15:36:31.000Z,101923
2018-12-30T15:38:31.000Z,101928
2018-12-30T15:40:31.000Z,101928
2018-12-30T15:42:16.000Z,101932
2018-12-30T15:44:31.000Z,101927
2018-12-30T15:45:31.000Z,101923
2018-12-30T15:46:31.000Z,101917
2018-12-30T15:48:31.000Z,101913
2018-12-30T15:50:31.000Z,101909
2018-12-30T15:52:31.000Z,101905
2018-12-30T15:54:16.000Z,101902
2018-12-30T15:56:31.000Z,101904
2018-12-30T15:57:31.000Z,101897
2018-12-30T15:58:31.000Z,101898
2018-12-30T16:00:31.000Z,101889
2018-12-30T16:02:31.000Z,101889
2018-12-30T16:04:31.000Z,101882
2018-12-30T16:05:31.000Z,101884
2018-12-30T16:07:31.000Z,101873
2018-12-30T16:08:31.000Z,101871
2018-12-30T16:10:31.000Z,101868
2018-12-30T16:12:16.000Z,101864
2018-12-30T16:13:31.000Z,101865
2018-12-30T16:15:31.000Z,101862
2018-12-30T16:17:31.000Z,101865
2018-12-30T16:19:16.000Z,101864
2018-12-30T16:20:31.000Z,101865
2018-12-30T16:22:31.000Z,101864
2018-12-30T16:24:31.000Z,101864
2018-12-30T16:26:31.000Z,101871
2018-12-30T16:28:31.000Z,101875
2018-12-30T16:30:31.000Z,101879
2018-12-30T16:32:16.000Z,101877
2018-12-30T16:33:31.000Z,101877
2018-12-30T16:35:16.000Z,101867
2018-12-30T16:37:31.000Z,101887
2018-12-30T16:38:31.000Z,101893
2018-12-30T16:40:31.000Z,101888
2018-12-30T16:42:31.000Z,101884
2018-12-30T16:44:31.000Z,101888
2018-12-30T16:45:31.000Z,101883
2018-12-30T16:47:01.000Z,101871
2018-12-30T16:48:16.000Z,101887
2018-12-30T16:49:31.000Z,101887
2018-12-30T16:51:16.000Z,101892
2018-12-30T16:52:31.000Z,101895
2018-12-30T16:54:31.000Z,101893
2018-12-30T16:56:31.000Z,101886
2018-12-30T16:58:31.000Z,101880
2018-12-30T17:00:31.000Z,101872
2018-12-30T17:01:31.000Z,101872
2018-12-30T17:03:32.000Z,101881
2018-12-30T17:04:32.000Z,101885
2018-12-30T17:06:32.000Z,101889
2018-12-30T17:08:32.000Z,101887
2018-12-30T17:10:17.000Z,101877
2018-12-30T17:12:32.000Z,101876
2018-12-30T17:14:32.000Z,101871
2018-12-30T17:15:32.000Z,101874
2018-12-30T17:16:32.000Z,101870
2018-12-30T17:18:16.000Z,101872
2018-12-30T17:19:31.000Z,101878
2018-12-30T17:20:32.000Z,101877
2018-12-30T17:22:32.000Z,101879
2018-12-30T17:24:31.000Z,101872
2018-12-30T17:25:32.000Z,101871
2018-12-30T17:27:32.000Z,101865
2018-12-30T17:29:32.000Z,101865
2018-12-30T17:31:16.000Z,101868
2018-12-30T17:32:17.000Z,101874
2018-12-30T17:33:32.000Z,101879
2018-12-30T17:35:32.000Z,101865
2018-12-30T17:37:32.000Z,101860
2018-12-30T17:39:16.000Z,101856
2018-12-30T17:40:16.000Z,101850
2018-12-30T17:41:32.000Z,101850
2018-12-30T17:42:32.000Z,101847
2018-12-30T17:44:17.000Z,101843
2018-12-30T17:46:17.000Z,101812
2018-12-30T17:48:32.000Z,101849
2018-12-30T17:49:32.000Z,101855
2018-12-30T17:51:31.000Z,101851
2018-12-30T17:52:31.000Z,101855
2018-12-30T17:54:32.000Z,101858
2018-12-30T17:55:32.000Z,101850
2018-12-30T17:57:32.000Z,101850
2018-12-30T17:59:32.000Z,101853
2018-12-30T18:00:32.000Z,101855
2018-12-30T18:01:32.000Z,101859
2018-12-30T18:03:16.000Z,101862
2018-12-30T18:04:32.000Z,101854
2018-12-30T18:05:31.000Z,101848
2018-12-30T18:07:16.000Z,101852
2018-12-30T18:08:16.000Z,101855
2018-12-30T18:10:31.000Z,101862
2018-12-30T18:12:31.000Z,101850
2018-12-30T18:14:31.000Z,101855
2018-12-30T18:16:16.000Z,101860
2018-12-30T18:17:31.000Z,101860
2018-12-30T18:19:31.000Z,101868
2018-12-30T18:21:31.000Z,101871
2018-12-30T18:23:31.000Z,101869
2018-12-30T18:25:16.000Z,101877
2018-12-30T18:26:31.000Z,101876
2018-12-30T18:28:31.000Z,101878
2018-12-30T18:30:31.000Z,101876
2018-12-30T18:32:01.000Z,101870
2018-12-30T18:33:16.000Z,101890
2018-12-30T18:34:31.000Z,101889
2018-12-30T18:35:31.000Z,101884
2018-12-30T18:37:31.000Z,101880
2018-12-30T18:39:31.000Z,101882
2018-12-30T18:40:31.000Z,101880
2018-12-30T18:42:16.000Z,101880
2018-12-30T18:43:31.000Z,101879
2018-12-30T18:45:16.000Z,101873
2018-12-30T18:46:31.000Z,101876
2018-12-30T18:48:31.000Z,101873
2018-12-30T18:49:31.000Z,101880
2018-12-30T18:50:31.000Z,101884
2018-12-30T18:52:31.000Z,101883
2018-12-30T18:54:31.000Z,101890
2018-12-30T18:56:01.000Z,101886
2018-12-30T18:57:31.000Z,101883
2018-12-30T18:58:31.000Z,101885
2018-12-30T18:59:31.000Z,101882
2018-12-30T19:01:31.000Z,101887
2018-12-30T19:03:31.000Z,101877
2018-12-30T19:04:31.000Z,101883
2018-12-30T19:06:16.000Z,101874
2018-12-30T19:07:31.000Z,101873
2018-12-30T19:09:31.000Z,101876
2018-12-30T19:10:31.000Z,101874
2018-12-30T19:11:31.000Z,101872
2018-12-30T19:13:31.000Z,101873
2018-12-30T19:15:31.000Z,101867
2018-12-30T19:17:31.000Z,101868
2018-12-30T19:19:31.000Z,101861
2018-12-30T19:20:31.000Z,101863
2018-12-30T19:22:16.000Z,101864
2018-12-30T19:23:31.000Z,101859
2018-12-30T19:24:31.000Z,101854
2018-12-30T19:26:16.000Z,101853
2018-12-30T19:27:31.000Z,101846
2018-12-30T19:29:31.000Z,101856
2018-12-30T19:31:31.000Z,101857
2018-12-30T19:33:01.000Z,101860
2018-12-30T19:34:31.000Z,101864
2018-12-30T19:36:16.000Z,101863
2018-12-30T19:37:31.000Z,101866
2018-12-30T19:38:31.000Z,101867
2018-12-30T19:39:31.000Z,101874
2018-12-30T19:41:16.000Z,101876
2018-12-30T19:42:31.000Z,101878
2018-12-30T19:44:31.000Z,101877
2018-12-30T19:46:01.000Z,101843
2018-12-30T19:47:31.000Z,101879
2018-12-30T19:48:31.000Z,101887
2018-12-30T19:49:31.000Z,101882
2018-12-30T19:50:31.000Z,101878
2018-12-30T19:52:31.000Z,101881
2018-12-30T19:54:31.000Z,101880
2018-12-30T19:55:31.000Z,101875
2018-12-30T19:57:31.000Z,101872
2018-12-30T19:58:31.000Z,101875
2018-12-30T19:59:31.000Z,101875
2018-12-30T20:01:31.000Z,101876
2018-12-30T20:03:31.000Z,101871
2018-12-30T20:05:31.000Z,101878
2018-12-30T20:06:31.000Z,101871